Time;durP1;ratioP1;P1;durP2;ratioP2;P2;SDS_P1;SDS_P2;PMS_P1;PMS_P2;Temp;Humidity;BMP_temperature;BMP_pressure;BME280_temperature;BME280_humidity;BME280_pressure;Samples;Min_cycle;Max_cycle;Signal;HPM_P1;HPM_P2
2024/01/02 00:01:34;;;;;;;1.30;1.30;;;9.50;99.90;;;;;;5031752;28;20114;-88
2024/01/02 00:04:00;;;;;;;1.38;1.33;;;9.50;99.90;;;;;;5025895;28;20055;-86
2024/01/02 00:06:25;;;;;;;1.38;1.35;;;9.50;99.90;;;;;;5024377;28;20061;-86
2024/01/02 00:08:51;;;;;;;1.23;1.23;;;9.60;99.90;;;;;;5042182;28;20072;-86
2024/01/02 00:11:18;;;;;;;1.30;1.30;;;9.50;99.90;;;;;;5033117;28;20036;-87
2024/01/02 00:13:43;;;;;;;1.45;1.40;;;9.50;99.90;;;;;;5045177;28;20433;-86
2024/01/02 00:16:09;;;;;;;1.33;1.33;;;9.60;99.90;;;;;;5039829;28;20043;-87
2024/01/02 00:18:35;;;;;;;1.48;1.40;;;9.60;99.90;;;;;;5044350;28;20040;-87
2024/01/02 00:21:02;;;;;;;1.30;1.30;;;9.60;99.90;;;;;;5043495;28;20052;-88
2024/01/02 00:23:27;;;;;;;1.98;1.88;;;9.60;99.90;;;;;;5031785;28;20055;-88
2024/01/02 00:25:53;;;;;;;1.50;1.40;;;9.50;99.90;;;;;;5044791;28;20049;-88
2024/01/02 00:28:19;;;;;;;1.60;1.50;;;9.50;99.90;;;;;;5040844;28;20052;-87
2024/01/02 00:30:45;;;;;;;1.45;1.40;;;9.50;99.90;;;;;;5046049;28;20131;-88
2024/01/02 00:33:11;;;;;;;1.30;1.30;;;9.50;99.90;;;;;;5029344;28;20580;-87
2024/01/02 00:35:37;;;;;;;1.33;1.33;;;9.50;99.90;;;;;;5028690;28;20071;-87
2024/01/02 00:38:03;;;;;;;1.40;1.40;;;9.60;99.90;;;;;;5043804;28;20128;-90
2024/01/02 00:40:29;;;;;;;1.42;1.38;;;9.60;99.90;;;;;;5054449;28;20037;-89
2024/01/02 00:42:55;;;;;;;1.30;1.30;;;9.70;99.90;;;;;;5048847;28;20044;-89
2024/01/02 00:45:21;;;;;;;1.30;1.30;;;9.60;99.90;;;;;;5031855;28;20182;-88
2024/01/02 00:47:47;;;;;;;1.25;1.25;;;9.70;99.90;;;;;;5028896;28;20139;-89
2024/01/02 00:50:13;;;;;;;1.30;1.30;;;9.70;99.90;;;;;;5030540;28;20039;-89
2024/01/02 00:52:39;;;;;;;1.30;1.30;;;9.60;99.90;;;;;;5031479;28;20694;-89
2024/01/02 00:55:08;;;;;;;1.30;1.30;;;9.70;99.90;;;;;;5044860;28;20045;-89
2024/01/02 00:57:34;;;;;;;1.30;1.30;;;9.80;99.90;;;;;;5037281;28;20056;-89
2024/01/02 01:00:01;;;;;;;1.20;1.20;;;9.70;99.90;;;;;;5026895;28;20089;-88
2024/01/02 01:02:27;;;;;;;1.20;1.20;;;9.80;99.90;;;;;;5044161;28;20048;-88
2024/01/02 01:04:52;;;;;;;1.20;1.20;;;9.70;99.90;;;;;;5030538;28;20425;-88
2024/01/02 01:07:18;;;;;;;1.30;1.30;;;9.70;99.90;;;;;;5049500;28;20048;-87
2024/01/02 01:09:44;;;;;;;1.20;1.20;;;9.80;99.90;;;;;;5031492;28;20048;-87
2024/01/02 01:12:09;;;;;;;1.20;1.20;;;9.70;99.90;;;;;;5032420;28;20128;-89
2024/01/02 01:14:35;;;;;;;1.30;1.30;;;9.80;99.90;;;;;;5030619;28;20052;-88
2024/01/02 01:17:01;;;;;;;1.20;1.20;;;9.80;99.90;;;;;;5048256;28;20077;-89
2024/01/02 01:19:27;;;;;;;1.20;1.20;;;9.70;99.90;;;;;;5048261;28;21538;-90
2024/01/02 01:21:53;;;;;;;1.30;1.30;;;9.80;99.90;;;;;;5033604;28;20094;-88
2024/01/02 01:24:19;;;;;;;1.20;1.20;;;9.70;99.90;;;;;;5051308;28;20083;-89
2024/01/02 01:26:45;;;;;;;1.20;1.20;;;9.80;99.90;;;;;;5033146;28;20053;-91
2024/01/02 01:29:12;;;;;;;1.38;1.35;;;9.70;99.90;;;;;;5054705;28;20036;-89
2024/01/02 01:31:38;;;;;;;1.10;1.10;;;9.90;99.90;;;;;;5033679;28;20062;-91
2024/01/02 01:34:04;;;;;;;1.27;1.27;;;9.80;99.90;;;;;;5036308;28;20036;-90
2024/01/02 01:36:29;;;;;;;1.20;1.20;;;9.70;99.90;;;;;;5056694;28;20521;-91
2024/01/02 01:38:55;;;;;;;1.20;1.20;;;9.90;99.90;;;;;;5053426;28;20044;-92
2024/01/02 01:41:21;;;;;;;1.20;1.20;;;9.90;99.90;;;;;;5051753;28;20040;-91
2024/01/02 01:43:47;;;;;;;1.20;1.20;;;9.70;99.90;;;;;;5035267;28;20048;-92
2024/01/02 01:46:15;;;;;;;1.30;1.30;;;9.70;99.90;;;;;;5035809;28;20074;-91
2024/01/02 01:48:41;;;;;;;1.20;1.20;;;9.90;99.90;;;;;;5049457;28;20752;-89
2024/01/02 01:51:08;;;;;;;1.30;1.30;;;9.90;99.90;;;;;;5035943;28;20101;-90
2024/01/02 01:53:35;;;;;;;1.10;1.10;;;9.80;99.90;;;;;;5035522;28;20498;-90
2024/01/02 01:56:01;;;;;;;1.20;1.20;;;10.00;99.90;;;;;;5062358;28;20125;-92
2024/01/02 01:58:27;;;;;;;1.20;1.20;;;9.80;99.90;;;;;;5035067;28;20044;-91
2024/01/02 02:00:53;;;;;;;1.20;1.20;;;9.90;99.90;;;;;;5052545;28;20059;-91
2024/01/02 02:03:20;;;;;;;1.20;1.20;;;9.90;99.90;;;;;;5034409;28;20044;-92
2024/01/02 02:05:48;;;;;;;1.10;1.10;;;9.90;99.90;;;;;;5051264;28;20072;-92
2024/01/02 02:08:14;;;;;;;1.10;1.10;;;9.80;99.90;;;;;;5036083;28;20071;-93
2024/01/02 02:10:40;;;;;;;1.10;1.10;;;10.00;99.90;;;;;;5033671;28;20044;-94
2024/01/02 02:13:06;;;;;;;1.30;1.30;;;10.10;99.90;;;;;;5036117;28;20036;-91
2024/01/02 02:15:31;;;;;;;1.10;1.10;;;10.00;99.90;;;;;;5034513;28;20127;-94
2024/01/02 02:17:57;;;;;;;1.20;1.20;;;10.00;99.90;;;;;;5049231;28;20080;-92
2024/01/02 02:20:23;;;;;;;1.20;1.20;;;10.00;99.90;;;;;;5030609;28;20036;-91
2024/01/02 02:22:50;;;;;;;1.23;1.23;;;9.90;99.90;;;;;;5033422;28;20174;-89
2024/01/02 02:25:16;;;;;;;1.20;1.20;;;10.00;99.90;;;;;;5049692;28;20048;-92
2024/01/02 02:27:42;;;;;;;1.10;1.10;;;10.10;99.90;;;;;;5032338;28;20082;-93
2024/01/02 02:30:09;;;;;;;1.30;1.30;;;9.90;99.90;;;;;;5034138;28;20033;-92
2024/01/02 02:32:35;;;;;;;1.10;1.10;;;10.10;99.90;;;;;;5036013;28;20052;-93
2024/01/02 02:35:01;;;;;;;1.10;1.10;;;9.90;99.90;;;;;;5037031;28;20045;-92
2024/01/02 02:37:27;;;;;;;1.10;1.10;;;10.10;99.90;;;;;;5038062;28;20037;-94
2024/01/02 02:39:53;;;;;;;1.20;1.20;;;10.10;99.90;;;;;;5034731;28;20813;-89
2024/01/02 02:42:18;;;;;;;1.33;1.33;;;10.10;99.90;;;;;;5046129;28;20478;-89
2024/01/02 02:44:44;;;;;;;1.10;1.10;;;9.90;99.90;;;;;;5046049;28;20041;-91
2024/01/02 02:47:10;;;;;;;1.35;1.35;;;9.90;99.90;;;;;;5033955;28;20041;-93
2024/01/02 02:49:40;;;;;;;1.20;1.20;;;10.10;99.90;;;;;;5050544;28;20044;-94
2024/01/02 02:52:06;;;;;;;1.10;1.10;;;10.20;99.90;;;;;;5049931;28;20037;-93
2024/01/02 02:54:32;;;;;;;1.10;1.10;;;10.00;99.90;;;;;;5033096;28;20701;-94
2024/01/02 02:56:58;;;;;;;1.10;1.10;;;10.00;99.90;;;;;;5033742;28;20761;-93
2024/01/02 02:59:26;;;;;;;1.10;1.10;;;9.90;99.90;;;;;;5033892;28;20055;-95
2024/01/02 03:01:52;;;;;;;1.10;1.10;;;9.90;99.90;;;;;;5051325;28;20051;-94
2024/01/02 03:04:21;;;;;;;1.10;1.10;;;9.90;99.90;;;;;;5034867;28;20053;-94
2024/01/02 03:06:57;;;;;;;;;;;;;;;;;;;;;
2024/01/02 03:09:23;;;;;;;1.10;1.10;;;10.10;99.90;;;;;;5048721;28;20056;-95
2024/01/02 03:11:49;;;;;;;1.20;1.20;;;10.10;99.90;;;;;;5037046;28;20037;-91
2024/01/02 03:14:15;;;;;;;1.10;1.10;;;10.00;99.90;;;;;;5038175;28;20047;-92
2024/01/02 03:16:42;;;;;;;1.13;1.13;;;10.00;99.90;;;;;;5049408;28;20044;-94
2024/01/02 03:19:08;;;;;;;1.20;1.20;;;10.10;99.90;;;;;;5065052;28;20040;-91
2024/01/02 03:21:33;;;;;;;1.10;1.10;;;10.20;99.90;;;;;;5037664;28;20131;-93
2024/01/02 03:24:02;;;;;;;1.30;1.30;;;10.00;99.90;;;;;;5038177;28;20143;-93
2024/01/02 03:26:28;;;;;;;1.13;1.13;;;10.20;99.90;;;;;;5036411;28;20127;-91
2024/01/02 03:28:57;;;;;;;1.10;1.10;;;10.00;99.90;;;;;;5037031;28;20131;-95
2024/01/02 03:31:25;;;;;;;1.20;1.20;;;10.10;99.90;;;;;;5037087;28;20039;-95
2024/01/02 03:34:00;;;;;;;1.20;1.20;;;10.10;99.90;;;;;;5039941;28;20059;-95
2024/01/02 03:36:26;;;;;;;1.17;1.17;;;10.10;99.90;;;;;;5048567;28;20037;-93
2024/01/02 03:39:12;;;;;;;1.25;1.25;;;10.20;99.90;;;;;;5047640;28;20397;-94
2024/01/02 03:41:38;;;;;;;1.20;1.20;;;10.00;99.90;;;;;;5034678;28;20769;-94
2024/01/02 03:44:19;;;;;;;1.48;1.40;;;10.10;99.90;;;;;;5035418;28;20043;-95
2024/01/02 03:46:45;;;;;;;1.20;1.20;;;10.20;99.90;;;;;;5018676;28;20048;-92
2024/01/02 03:49:11;;;;;;;1.20;1.20;;;10.10;99.90;;;;;;5032683;28;20116;-94
2024/01/02 03:51:39;;;;;;;1.20;1.20;;;10.20;99.90;;;;;;5033387;28;20052;-94
2024/01/02 03:54:20;;;;;;;;;;;;;;;;;;;;;
2024/01/02 03:57:05;;;;;;;1.30;1.30;;;10.30;99.90;;;;;;5051889;28;20044;-95
2024/01/02 03:59:35;;;;;;;1.20;1.20;;;10.10;99.90;;;;;;5033235;28;20068;-94
2024/01/02 04:02:04;;;;;;;1.20;1.20;;;10.20;99.90;;;;;;5037202;28;20041;-94
2024/01/02 04:04:30;;;;;;;1.30;1.30;;;10.10;99.90;;;;;;5023603;28;20498;-91
2024/01/02 04:06:58;;;;;;;1.20;1.20;;;10.20;99.90;;;;;;5027483;28;20048;-93
2024/01/02 04:09:24;;;;;;;1.20;1.20;;;10.30;99.90;;;;;;5034833;28;20071;-94
2024/01/02 04:11:53;;;;;;;1.23;1.23;;;10.20;99.90;;;;;;5021300;28;20072;-95
2024/01/02 04:14:19;;;;;;;1.30;1.30;;;10.00;99.90;;;;;;5038445;28;20075;-95
2024/01/02 04:16:45;;;;;;;1.30;1.30;;;10.00;99.90;;;;;;5051543;28;20080;-92
2024/01/02 04:19:10;;;;;;;1.30;1.30;;;10.20;99.90;;;;;;5051470;28;20045;-94
2024/01/02 04:21:36;;;;;;;1.20;1.20;;;10.20;99.90;;;;;;5054381;28;20050;-95
2024/01/02 04:24:05;;;;;;;1.25;1.25;;;10.20;99.90;;;;;;5034796;28;20153;-94
2024/01/02 04:26:31;;;;;;;1.30;1.30;;;10.20;99.90;;;;;;5053188;28;20048;-95
2024/01/02 04:28:56;;;;;;;1.50;1.40;;;10.20;99.90;;;;;;5032140;28;20048;-91
2024/01/02 04:31:22;;;;;;;1.30;1.30;;;10.10;99.90;;;;;;5033701;28;20032;-94
2024/01/02 04:33:48;;;;;;;1.50;1.40;;;10.10;99.90;;;;;;5035372;28;20037;-94
2024/01/02 04:36:14;;;;;;;1.30;1.30;;;10.30;99.90;;;;;;5035627;28;20050;-94
2024/01/02 04:38:39;;;;;;;1.30;1.30;;;10.20;99.90;;;;;;5054291;28;20109;-92
2024/01/02 04:41:06;;;;;;;1.30;1.30;;;10.10;99.90;;;;;;5052857;28;20064;-94
2024/01/02 04:43:32;;;;;;;1.30;1.30;;;10.20;99.90;;;;;;5036735;28;20071;-92
2024/01/02 04:45:58;;;;;;;1.38;1.38;;;10.10;99.90;;;;;;5035750;28;20052;-93
2024/01/02 04:48:24;;;;;;;1.27;1.27;;;10.20;99.90;;;;;;5039562;28;20064;-92
2024/01/02 04:50:49;;;;;;;1.25;1.25;;;10.10;99.90;;;;;;5033635;28;20075;-93
2024/01/02 04:53:15;;;;;;;1.38;1.35;;;10.10;99.90;;;;;;5052442;28;20051;-94
2024/01/02 04:56:07;;;;;;;1.30;1.30;;;10.30;99.90;;;;;;5035472;28;20049;-96
2024/01/02 04:58:32;;;;;;;1.30;1.30;;;10.10;99.90;;;;;;5034955;28;20040;-94
2024/01/02 05:00:58;;;;;;;1.30;1.30;;;10.10;99.90;;;;;;5036209;28;20170;-91
2024/01/02 05:03:24;;;;;;;1.50;1.40;;;10.30;99.90;;;;;;5036555;28;20045;-91
2024/01/02 05:05:50;;;;;;;1.50;1.40;;;10.20;99.90;;;;;;5034921;28;20033;-92
2024/01/02 05:08:17;;;;;;;1.38;1.35;;;10.20;99.90;;;;;;5049119;28;20502;-94
2024/01/02 05:10:43;;;;;;;1.50;1.40;;;10.30;99.90;;;;;;5035090;28;20051;-93
2024/01/02 05:13:11;;;;;;;1.45;1.40;;;10.10;99.90;;;;;;5034067;28;20032;-93
2024/01/02 05:15:38;;;;;;;1.35;1.33;;;10.20;99.90;;;;;;5033320;28;20056;-92
2024/01/02 05:18:04;;;;;;;1.42;1.35;;;10.10;99.90;;;;;;5034856;28;20073;-91
2024/01/02 05:20:35;;;;;;;1.50;1.40;;;10.20;99.90;;;;;;5037909;28;20048;-95
2024/01/02 05:23:03;;;;;;;1.30;1.30;;;10.00;99.90;;;;;;5048472;28;20048;-94
2024/01/02 05:25:30;;;;;;;1.60;1.50;;;10.20;99.90;;;;;;5051911;28;20114;-92
2024/01/02 05:27:59;;;;;;;1.50;1.40;;;10.00;99.90;;;;;;5035718;28;20047;-95
2024/01/02 05:30:41;;;;;;;1.58;1.48;;;10.00;99.90;;;;;;5040753;28;20375;-94
2024/01/02 05:33:06;;;;;;;1.50;1.40;;;10.20;99.90;;;;;;5035946;28;20040;-91
2024/01/02 05:35:35;;;;;;;1.60;1.50;;;10.30;99.90;;;;;;5047113;28;20068;-94
2024/01/02 05:38:02;;;;;;;1.30;1.30;;;10.00;99.90;;;;;;5053124;28;20141;-93
2024/01/02 05:40:27;;;;;;;1.50;1.42;;;10.30;99.90;;;;;;5033952;28;20036;-91
2024/01/02 05:42:53;;;;;;;1.60;1.50;;;10.30;99.90;;;;;;5037152;28;20079;-91
2024/01/02 05:45:19;;;;;;;1.52;1.42;;;10.00;99.90;;;;;;5033279;28;20167;-91
2024/01/02 05:47:51;;;;;;;1.40;1.35;;;10.00;99.90;;;;;;5055178;28;20101;-95
2024/01/02 05:50:17;;;;;;;1.60;1.50;;;10.10;99.90;;;;;;5051885;28;20048;-93
2024/01/02 05:52:42;;;;;;;1.60;1.50;;;10.30;99.90;;;;;;5055422;28;20044;-92
2024/01/02 05:55:09;;;;;;;1.50;1.40;;;10.20;99.90;;;;;;5039892;28;20189;-94
2024/01/02 05:57:48;;;;;;;1.70;1.60;;;10.10;99.90;;;;;;5037495;28;20134;-94
2024/01/02 06:00:14;;;;;;;1.58;1.48;;;10.10;99.90;;;;;;5053712;28;20064;-93
2024/01/02 06:02:46;;;;;;;1.67;1.58;;;10.10;99.90;;;;;;5051215;28;20045;-94
2024/01/02 06:05:12;;;;;;;1.50;1.40;;;10.20;99.90;;;;;;5050141;28;20036;-94
2024/01/02 06:07:40;;;;;;;1.58;1.48;;;10.50;99.90;;;;;;5053714;28;20045;-94
2024/01/02 06:10:06;;;;;;;1.58;1.48;;;10.20;99.90;;;;;;5051034;28;20067;-90
2024/01/02 06:12:35;;;;;;;1.58;1.48;;;10.60;99.90;;;;;;5052056;28;20049;-94
2024/01/02 06:15:03;;;;;;;1.50;1.40;;;10.50;99.90;;;;;;5037467;28;20131;-93
2024/01/02 06:17:29;;;;;;;1.60;1.50;;;10.40;99.90;;;;;;5045803;28;20047;-94
2024/01/02 06:19:55;;;;;;;1.60;1.50;;;10.50;99.90;;;;;;5035405;28;20040;-92
2024/01/02 06:22:21;;;;;;;1.60;1.50;;;10.40;99.90;;;;;;5051653;28;20048;-92
2024/01/02 06:24:47;;;;;;;1.60;1.50;;;10.50;99.90;;;;;;5034112;28;20049;-92
2024/01/02 06:27:13;;;;;;;1.70;1.60;;;10.50;99.90;;;;;;5055388;28;20067;-94
2024/01/02 06:29:42;;;;;;;1.50;1.40;;;10.20;99.90;;;;;;5051967;28;20501;-95
2024/01/02 06:32:07;;;;;;;1.50;1.40;;;10.40;99.90;;;;;;5052906;28;20044;-90
2024/01/02 06:34:33;;;;;;;1.50;1.40;;;10.50;99.90;;;;;;5040732;28;20051;-94
2024/01/02 06:37:03;;;;;;;1.50;1.40;;;10.70;99.90;;;;;;5059262;28;20044;-94
2024/01/02 06:39:35;;;;;;;1.60;1.50;;;10.30;99.90;;;;;;5037403;28;20047;-93
2024/01/02 06:42:08;;;;;;;1.58;1.48;;;10.40;99.90;;;;;;5039826;28;20045;-95
2024/01/02 06:44:37;;;;;;;1.60;1.50;;;10.40;99.90;;;;;;5039533;28;20052;-93
2024/01/02 06:47:03;;;;;;;1.50;1.40;;;10.40;99.90;;;;;;5037401;28;20102;-94
2024/01/02 06:49:29;;;;;;;1.30;1.30;;;10.80;99.90;;;;;;5040727;28;20036;-94
2024/01/02 06:51:55;;;;;;;1.52;1.42;;;10.60;99.90;;;;;;5055764;28;20044;-92
2024/01/02 06:54:20;;;;;;;1.58;1.48;;;10.70;99.90;;;;;;5069667;28;20402;-95
2024/01/02 06:56:46;;;;;;;1.25;1.25;;;10.40;99.90;;;;;;5039368;28;20051;-95
2024/01/02 06:59:12;;;;;;;1.33;1.33;;;10.40;99.90;;;;;;5038139;28;20482;-93
2024/01/02 07:01:41;;;;;;;1.50;1.40;;;10.70;99.90;;;;;;5036210;28;20815;-95
2024/01/02 07:04:07;;;;;;;1.30;1.30;;;10.90;99.90;;;;;;5054377;28;20055;-95
2024/01/02 07:06:35;;;;;;;1.45;1.40;;;10.70;99.90;;;;;;5039413;28;20087;-93
2024/01/02 07:09:01;;;;;;;1.48;1.40;;;11.00;99.90;;;;;;5053016;28;20072;-94
2024/01/02 07:11:27;;;;;;;1.48;1.40;;;10.70;99.90;;;;;;5039740;28;20546;-93
2024/01/02 07:13:52;;;;;;;1.30;1.30;;;11.10;99.90;;;;;;5055949;28;20615;-94
2024/01/02 07:16:18;;;;;;;1.30;1.30;;;10.70;99.90;;;;;;5037782;28;20044;-94
2024/01/02 07:18:50;;;;;;;1.50;1.40;;;10.90;99.90;;;;;;5037677;28;20052;-94
2024/01/02 07:21:15;;;;;;;1.27;1.27;;;11.20;99.90;;;;;;5053251;28;20056;-93
2024/01/02 07:27:14;;;;;;;1.30;1.30;;;11.80;99.90;;;;;;5029409;28;20051;-94
2024/01/02 07:30:13;;;;;;;1.20;1.20;;;11.90;99.90;;;;;;5052848;28;20131;-94
2024/01/02 07:32:38;;;;;;;1.55;1.45;;;11.90;99.90;;;;;;5024256;28;20128;-94
2024/01/02 07:35:07;;;;;;;1.25;1.25;;;11.30;99.90;;;;;;5038425;28;20763;-95
2024/01/02 07:37:36;;;;;;;1.38;1.38;;;11.20;99.90;;;;;;5057856;28;20059;-96
2024/01/02 07:40:02;;;;;;;1.80;1.70;;;11.20;99.90;;;;;;5036353;28;20040;-93
2024/01/02 07:42:28;;;;;;;1.67;1.58;;;11.50;99.90;;;;;;5052240;28;20051;-94
2024/01/02 07:44:56;;;;;;;1.83;1.73;;;11.50;99.90;;;;;;5053353;28;20075;-93
2024/01/02 07:47:31;;;;;;;2.58;2.47;;;11.50;99.90;;;;;;5046417;28;20045;-96
2024/01/02 07:50:00;;;;;;;2.35;2.25;;;12.20;99.90;;;;;;5052264;28;20375;-94
2024/01/02 07:52:29;;;;;;;2.00;1.90;;;11.60;99.90;;;;;;5010867;28;20054;-95
2024/01/02 07:55:47;;;;;;;2.10;2.00;;;11.70;99.90;;;;;;4966658;28;20635;-93
2024/01/02 07:58:50;;;;;;;2.00;1.90;;;11.90;99.90;;;;;;5027065;28;20036;-95
2024/01/02 08:01:17;;;;;;;2.05;1.95;;;12.70;99.90;;;;;;5037972;28;20040;-94
2024/01/02 08:04:16;;;;;;;2.38;2.28;;;12.60;99.90;;;;;;5042457;28;20056;-95
2024/01/02 08:07:01;;;;;;;2.03;1.92;;;12.40;99.90;;;;;;4984429;28;20093;-96
2024/01/02 08:10:39;;;;;;;;;;;;;;;;;;;;;
2024/01/02 08:14:00;;;;;;;2.92;2.80;;;12.50;99.90;;;;;;4994979;28;20077;-94
2024/01/02 08:16:58;;;;;;;2.00;1.90;;;12.30;99.90;;;;;;4972188;28;20111;-94
2024/01/02 08:19:48;;;;;;;2.13;2.03;;;11.90;99.90;;;;;;4977674;28;20443;-95
2024/01/02 08:29:26;;;;;;;2.20;2.10;;;12.30;99.90;;;;;;4988909;28;20052;-95
2024/01/02 08:31:55;;;;;;;2.63;2.53;;;12.40;99.90;;;;;;5050361;28;20044;-96
2024/01/02 08:34:27;;;;;;;3.17;3.00;;;12.60;99.90;;;;;;5036269;28;20040;-95
2024/01/02 08:36:58;;;;;;;2.97;2.88;;;12.10;99.90;;;;;;5037407;28;20534;-95
2024/01/02 08:39:37;;;;;;;3.55;3.35;;;12.60;99.90;;;;;;5036831;28;20293;-94
2024/01/02 08:42:14;;;;;;;2.53;2.42;;;12.30;99.90;;;;;;5050705;28;20068;-95
2024/01/02 08:45:10;;;;;;;2.78;2.67;;;12.30;99.90;;;;;;5051269;28;20063;-94
2024/01/02 08:51:19;;;;;;;2.97;2.83;;;12.60;99.90;;;;;;5047220;28;20052;-92
2024/01/02 08:54:04;;;;;;;;;;;;;;;;;;;;;
2024/01/02 08:56:52;;;;;;;5.05;4.75;;;13.60;99.90;;;;;;5051395;28;20084;-93
2024/01/02 08:59:59;;;;;;;;;;;;;;;;;;;;;
2024/01/02 09:02:51;;;;;;;4.00;3.80;;;12.70;99.90;;;;;;5049626;28;20044;-94
2024/01/02 09:06:01;;;;;;;4.30;4.10;;;12.60;99.90;;;;;;5053558;28;20040;-95
2024/01/02 09:08:43;;;;;;;4.70;4.40;;;13.40;99.90;;;;;;5033965;28;20049;-94
2024/01/02 09:11:47;;;;;;;3.97;3.78;;;13.70;99.90;;;;;;5069484;28;20406;-95
2024/01/02 09:14:36;;;;;;;4.25;4.05;;;13.30;99.90;;;;;;5018775;28;20057;-95
2024/01/02 09:17:11;;;;;;;5.30;5.00;;;13.00;99.90;;;;;;5053101;28;20068;-96
2024/01/02 09:20:16;;;;;;;6.13;5.78;;;13.90;99.90;;;;;;5035146;28;20053;-95
2024/01/02 09:22:54;;;;;;;5.70;5.40;;;12.90;99.90;;;;;;5039006;28;20155;-95
2024/01/02 09:25:36;;;;;;;6.25;5.85;;;13.30;99.90;;;;;;5036714;28;20095;-94
2024/01/02 09:31:49;;;;;;;6.03;5.63;;;14.10;99.90;;;;;;5052551;28;20445;-94
2024/01/02 09:34:41;;;;;;;7.97;7.47;;;14.10;99.90;;;;;;5023561;28;20048;-94
2024/01/02 09:37:17;;;;;;;7.13;6.72;;;14.20;99.90;;;;;;5021959;28;20057;-95
2024/01/02 09:39:48;;;;;;;7.63;7.18;;;14.30;99.90;;;;;;5031772;28;20054;-93
2024/01/02 09:42:46;;;;;;;7.68;7.25;;;14.30;99.90;;;;;;5054452;28;20605;-95
2024/01/02 09:45:38;;;;;;;8.40;7.90;;;13.20;99.90;;;;;;5056526;28;20478;-95
2024/01/02 09:48:38;;;;;;;8.75;8.25;;;13.30;99.90;;;;;;5031372;28;20044;-94
2024/01/02 09:51:49;;;;;;;13.25;12.52;;;14.30;99.90;;;;;;5043112;28;20040;-94
2024/01/02 09:54:34;;;;;;;;;;;;;;;;;;;;;
2024/01/02 09:57:24;;;;;;;9.55;8.98;;;14.30;99.90;;;;;;5061563;28;20128;-94
2024/01/02 10:00:48;;;;;;;9.68;9.10;;;14.30;99.90;;;;;;5047615;28;20489;-94
2024/01/02 10:04:02;;;;;;;;;;;;;;;;;;;;;
2024/01/02 10:07:39;;;;;;;8.77;8.27;;;14.60;99.90;;;;;;5007290;28;20129;-94
2024/01/02 10:13:09;;;;;;;10.13;9.52;;;14.80;99.90;;;;;;5052352;28;20048;-94
2024/01/02 10:16:11;;;;;;;8.55;8.05;;;14.00;99.90;;;;;;5033071;28;20060;-94
2024/01/02 10:19:03;;;;;;;8.52;8.02;;;14.10;99.90;;;;;;5056439;28;20080;-93
2024/01/02 10:22:03;;;;;;;10.13;9.60;;;14.80;99.90;;;;;;5035439;28;20577;-93
2024/01/02 10:24:38;;;;;;;9.10;8.60;;;14.30;99.90;;;;;;5071487;28;20102;-94
2024/01/02 10:27:35;;;;;;;9.80;9.30;;;14.30;99.90;;;;;;5053132;28;20433;-94
2024/01/02 10:30:32;;;;;;;8.07;7.65;;;14.30;99.90;;;;;;5070537;28;20385;-95
2024/01/02 10:33:10;;;;;;;12.10;11.48;;;14.50;99.90;;;;;;5029042;28;20037;-95
2024/01/02 10:35:50;;;;;;;10.00;9.50;;;14.70;99.90;;;;;;5035319;28;20055;-95
2024/01/02 10:38:22;;;;;;;7.82;7.38;;;14.40;99.90;;;;;;5038551;28;20033;-94
2024/01/02 10:41:06;;;;;;;11.23;10.63;;;14.80;99.90;;;;;;5052987;28;20060;-95
2024/01/02 10:44:05;;;;;;;9.00;8.50;;;14.50;99.90;;;;;;5038324;28;20191;-93
2024/01/02 10:47:00;;;;;;;9.95;9.43;;;14.80;99.90;;;;;;5056122;28;20044;-96
2024/01/02 10:49:38;;;;;;;9.02;8.52;;;14.60;99.90;;;;;;5052911;28;20048;-94
2024/01/02 10:53:10;;;;;;;10.40;9.80;;;14.80;99.90;;;;;;5056266;28;20126;-95
2024/01/02 10:55:48;;;;;;;11.23;10.63;;;14.30;99.90;;;;;;5048685;28;20131;-95
2024/01/02 10:58:44;;;;;;;9.88;9.32;;;14.70;99.90;;;;;;5039980;28;20504;-93
2024/01/02 11:01:17;;;;;;;9.90;9.35;;;14.80;99.90;;;;;;5036775;28;20052;-95
2024/01/02 11:03:59;;;;;;;;;;;14.50;99.90;;;;;;5051746;28;20076;-95
2024/01/02 11:06:42;;;;;;;11.40;10.80;;;14.80;99.90;;;;;;5036704;28;20372;-94
2024/01/02 11:09:24;;;;;;;10.18;9.57;;;14.30;99.90;;;;;;5053163;28;20052;-93
2024/01/02 11:11:51;;;;;;;10.35;9.75;;;14.60;99.90;;;;;;5034740;28;20060;-92
2024/01/02 11:14:23;;;;;;;8.88;8.38;;;15.00;99.90;;;;;;5037473;28;20036;-95
2024/01/02 11:16:56;;;;;;;9.00;8.50;;;14.80;99.90;;;;;;5035624;28;20127;-94
2024/01/02 11:19:34;;;;;;;8.10;7.68;;;14.70;99.90;;;;;;5039677;28;20045;-93
2024/01/02 11:22:10;;;;;;;9.77;9.27;;;14.90;99.90;;;;;;5042817;28;20047;-93
2024/01/02 11:24:43;;;;;;;9.25;8.75;;;14.90;99.90;;;;;;5057336;28;20171;-94
2024/01/02 11:27:18;;;;;;;7.47;7.07;;;14.90;99.90;;;;;;5039368;28;20046;-94
2024/01/02 11:29:44;;;;;;;9.95;9.43;;;14.60;99.90;;;;;;5040342;28;20036;-95
2024/01/02 11:32:17;;;;;;;11.00;10.40;;;15.00;99.90;;;;;;5054323;28;20222;-93
2024/01/02 11:34:59;;;;;;;12.53;11.87;;;14.70;99.90;;;;;;5039808;28;20048;-95
2024/01/02 11:37:35;;;;;;;11.00;10.40;;;14.70;99.90;;;;;;5051709;28;20044;-95
2024/01/02 11:40:20;;;;;;;13.38;12.68;;;14.70;99.90;;;;;;5037668;28;20049;-95
2024/01/02 11:43:14;;;;;;;7.97;7.47;;;14.60;99.90;;;;;;5032150;28;20047;-96
2024/01/02 11:45:42;;;;;;;;;;;14.80;99.90;;;;;;5040336;28;20049;-95
2024/01/02 11:48:41;;;;;;;10.95;10.35;;;14.50;99.90;;;;;;5046657;28;20397;-95
2024/01/02 11:51:43;;;;;;;10.27;9.68;;;14.60;99.90;;;;;;5038604;28;20737;-96
2024/01/02 11:54:21;;;;;;;10.18;9.57;;;14.90;99.90;;;;;;5053762;28;20516;-94
2024/01/02 11:56:52;;;;;;;7.78;7.35;;;14.90;99.90;;;;;;5025387;28;20047;-94
2024/01/02 11:59:54;;;;;;;9.48;8.98;;;15.00;99.90;;;;;;5035573;28;20036;-93
2024/01/02 12:02:57;;;;;;;7.80;7.35;;;14.60;99.90;;;;;;5052274;28;20041;-93
2024/01/02 12:05:46;;;;;;;9.73;9.23;;;14.80;99.90;;;;;;5038082;28;20037;-94
2024/01/02 12:08:15;;;;;;;11.10;10.50;;;14.80;99.90;;;;;;5053919;28;21919;-93
2024/01/02 12:10:48;;;;;;;11.45;10.85;;;14.60;99.90;;;;;;5036860;28;20048;-94
2024/01/02 12:13:25;;;;;;;8.68;8.18;;;14.70;99.90;;;;;;5036765;28;20068;-92
2024/01/02 12:16:15;;;;;;;11.25;10.65;;;14.70;99.90;;;;;;5053890;28;21614;-95
2024/01/02 12:18:48;;;;;;;11.95;11.35;;;14.60;99.90;;;;;;5055734;28;20137;-94
2024/01/02 12:21:22;;;;;;;10.32;9.75;;;14.80;99.90;;;;;;5038660;28;20188;-94
2024/01/02 12:23:51;;;;;;;9.85;9.35;;;14.90;99.90;;;;;;5048670;28;20707;-93
2024/01/02 12:26:25;;;;;;;9.68;9.18;;;14.90;99.90;;;;;;5052920;28;20052;-93
2024/01/02 12:28:51;;;;;;;9.38;8.88;;;14.90;99.90;;;;;;5048583;28;20036;-93
2024/01/02 12:31:35;;;;;;;10.10;9.50;;;14.70;99.90;;;;;;5037436;28;20053;-94
2024/01/02 12:34:28;;;;;;;12.00;11.40;;;14.50;99.90;;;;;;5052670;28;20045;-94
2024/01/02 12:37:14;;;;;;;10.18;9.57;;;14.60;99.90;;;;;;5042716;28;20052;-94
2024/01/02 12:39:43;;;;;;;10.48;9.88;;;14.50;99.90;;;;;;5022308;28;20044;-94
2024/01/02 12:42:14;;;;;;;13.27;12.57;;;14.50;99.90;;;;;;5049498;28;20052;-94
2024/01/02 12:44:44;;;;;;;8.00;7.50;;;14.60;99.90;;;;;;5029577;28;20123;-94
2024/01/02 12:47:24;;;;;;;10.77;10.18;;;14.60;99.90;;;;;;5037754;28;20048;-94
2024/01/02 12:49:59;;;;;;;12.95;12.25;;;14.70;99.90;;;;;;5036214;28;20066;-93
2024/01/02 12:52:32;;;;;;;9.32;8.82;;;14.80;99.90;;;;;;5031770;28;20156;-93
2024/01/02 12:54:59;;;;;;;8.52;8.02;;;14.80;99.90;;;;;;5026619;28;20048;-92
2024/01/02 12:57:27;;;;;;;9.07;8.57;;;14.80;99.90;;;;;;5059694;28;20039;-92
2024/01/02 12:59:53;;;;;;;9.07;8.57;;;14.40;99.90;;;;;;5041927;28;20056;-94
2024/01/02 13:02:21;;;;;;;10.52;9.93;;;14.40;99.90;;;;;;5058869;28;20052;-92
2024/01/02 13:04:46;;;;;;;9.38;8.88;;;14.70;99.90;;;;;;5058944;28;20047;-93
2024/01/02 13:07:13;;;;;;;11.93;11.30;;;14.90;99.90;;;;;;5059708;28;20074;-94
2024/01/02 13:09:40;;;;;;;9.82;9.27;;;14.40;99.90;;;;;;5045518;28;20137;-92
2024/01/02 13:12:12;;;;;;;10.18;9.57;;;14.50;99.90;;;;;;5044235;28;20551;-93
2024/01/02 13:14:39;;;;;;;11.30;10.70;;;14.70;99.90;;;;;;5034481;28;20052;-92
2024/01/02 13:17:06;;;;;;;11.23;10.63;;;14.80;99.90;;;;;;5040982;28;20069;-94
2024/01/02 13:19:32;;;;;;;10.20;9.60;;;14.30;99.90;;;;;;5056766;28;20126;-94
2024/01/02 13:21:58;;;;;;;11.57;10.98;;;14.20;99.90;;;;;;5058705;28;20106;-94
2024/01/02 13:24:24;;;;;;;9.88;9.27;;;14.80;99.90;;;;;;5034546;28;20757;-95
2024/01/02 13:26:57;;;;;;;10.18;9.57;;;14.90;99.90;;;;;;5045172;28;20044;-95
2024/01/02 13:29:24;;;;;;;10.13;9.52;;;14.80;99.90;;;;;;5042010;28;20055;-93
2024/01/02 13:31:53;;;;;;;9.02;8.52;;;14.30;99.90;;;;;;5046546;28;20127;-94
2024/01/02 13:35:14;;;;;;;11.68;11.07;;;14.90;99.90;;;;;;5042275;28;20052;-94
2024/01/02 13:37:43;;;;;;;11.30;10.68;;;14.30;99.90;;;;;;5022997;28;20074;-95
2024/01/02 13:40:23;;;;;;;8.68;8.18;;;14.40;99.90;;;;;;5042411;28;20068;-95
2024/01/02 13:43:23;;;;;;;10.88;10.27;;;14.60;99.90;;;;;;5058189;28;20072;-94
2024/01/02 13:52:49;;;;;;;10.88;10.27;;;14.30;99.90;;;;;;5050887;28;20060;-95
2024/01/02 13:55:39;;;;;;;11.43;10.82;;;14.10;99.90;;;;;;5038278;28;20191;-95
2024/01/02 13:59:12;;;;;;;;;;;;;;;;;;;;;